createdAt,value
2023-02-11T00:00:14.855Z,101069.00
2023-02-11T00:02:19.643Z,101073.84
2023-02-11T00:04:22.732Z,101087.97
2023-02-11T00:06:26.932Z,101082.16
2023-02-11T00:08:29.849Z,101078.28
2023-02-11T00:10:32.817Z,101068.81
2023-02-11T00:12:36.571Z,101078.28
2023-02-11T00:14:39.747Z,101084.03
2023-02-11T00:16:42.961Z,101087.63
2023-02-11T00:18:48.892Z,101083.59
2023-02-11T00:20:51.740Z,101086.94
2023-02-11T00:22:54.780Z,101077.38
2023-02-11T00:24:57.933Z,101075.78
2023-02-11T00:27:00.852Z,101074.41
2023-02-11T00:29:05.889Z,101066.72
2023-02-11T00:31:09.335Z,101051.22
2023-02-11T00:33:13.168Z,101060.50
2023-02-11T00:35:17.748Z,101038.53
2023-02-11T00:37:20.717Z,101031.66
2023-02-11T00:39:23.696Z,101029.78
2023-02-11T00:41:26.858Z,101015.25
2023-02-11T00:43:30.126Z,101003.56
2023-02-11T00:45:33.092Z,101010.63
2023-02-11T00:47:38.097Z,101016.72
2023-02-11T00:49:41.297Z,101013.25
2023-02-11T00:51:45.782Z,101019.44
2023-02-11T00:53:48.805Z,101014.91
2023-02-11T00:55:52.132Z,101005.56
2023-02-11T00:57:55.048Z,101001.22
2023-02-11T00:59:57.966Z,100998.69
2023-02-11T01:02:01.086Z,100989.84
2023-02-11T01:04:04.307Z,100987.97
2023-02-11T01:06:07.807Z,100975.56
2023-02-11T01:08:15.209Z,100974.81
2023-02-11T01:10:18.369Z,100970.28
2023-02-11T01:12:22.000Z,100957.69
2023-02-11T01:14:25.016Z,100956.56
2023-02-11T01:16:28.060Z,100955.38
2023-02-11T01:18:30.932Z,100949.06
2023-02-11T01:20:34.085Z,100943.63
2023-02-11T01:22:39.863Z,100939.84
2023-02-11T01:24:45.675Z,100944.03
2023-02-11T01:26:48.712Z,100948.78
2023-02-11T01:28:52.037Z,100933.66
2023-02-11T01:30:56.150Z,100929.22
2023-02-11T01:32:59.132Z,100930.50
2023-02-11T01:35:02.035Z,100931.00
2023-02-11T01:37:05.052Z,100923.13
2023-02-11T01:39:09.054Z,100926.91
2023-02-11T01:41:15.415Z,100913.41
2023-02-11T01:43:19.252Z,100910.69
2023-02-11T01:45:53.732Z,100923.66
2023-02-11T01:47:57.612Z,100916.47
2023-02-11T01:50:02.774Z,100906.25
2023-02-11T01:52:10.370Z,100906.78
2023-02-11T01:54:35.730Z,100894.03
2023-02-11T01:57:03.058Z,100892.84
2023-02-11T01:59:12.216Z,100894.69
2023-02-11T02:01:18.805Z,100890.88
2023-02-11T02:03:24.914Z,100893.41
2023-02-11T02:05:35.226Z,100884.88
2023-02-11T02:07:45.691Z,100886.00
2023-02-11T02:09:55.934Z,100888.63
2023-02-11T02:12:00.459Z,100882.19
2023-02-11T02:14:03.875Z,100874.53
2023-02-11T02:16:11.571Z,100876.31
2023-02-11T02:18:30.441Z,100875.16
2023-02-11T02:21:24.528Z,100863.44
2023-02-11T02:23:36.009Z,100853.94
2023-02-11T02:25:58.648Z,100851.00
2023-02-11T02:28:18.598Z,100844.06
2023-02-11T02:30:39.051Z,100831.72
2023-02-11T02:32:51.225Z,100832.25
2023-02-11T02:35:03.420Z,100832.03
2023-02-11T02:37:11.491Z,100840.91
2023-02-11T02:39:20.921Z,100841.41
2023-02-11T02:41:29.175Z,100839.59
2023-02-11T02:43:33.865Z,100837.69
2023-02-11T02:45:36.900Z,100832.75
2023-02-11T02:47:39.913Z,100837.69
2023-02-11T02:49:44.228Z,100828.09
2023-02-11T02:52:08.212Z,100835.28
2023-02-11T02:54:44.385Z,100830.34
2023-02-11T02:56:55.870Z,100826.44
2023-02-11T02:59:12.770Z,100830.72
2023-02-11T03:01:27.369Z,100831.59
2023-02-11T03:03:40.483Z,100820.44
2023-02-11T03:05:50.452Z,100826.31
2023-02-11T03:07:59.173Z,100828.09
2023-02-11T03:10:09.578Z,100816.63
2023-02-11T03:12:14.171Z,100810.50
2023-02-11T03:14:18.971Z,100800.81
2023-02-11T03:16:26.023Z,100798.72
2023-02-11T03:18:31.079Z,100794.06
2023-02-11T03:20:37.719Z,100786.91
2023-02-11T03:22:48.543Z,100774.94
2023-02-11T03:24:51.929Z,100771.50
2023-02-11T03:26:57.929Z,100763.34
2023-02-11T03:29:06.852Z,100759.53
2023-02-11T03:31:17.854Z,100751.88
2023-02-11T03:33:28.135Z,100746.59
2023-02-11T03:35:37.294Z,100743.72
2023-02-11T03:37:45.889Z,100733.78
2023-02-11T03:39:54.069Z,100723.13
2023-02-11T03:42:00.533Z,100716.81
2023-02-11T03:44:06.090Z,100708.69
2023-02-11T03:46:11.414Z,100720.16
2023-02-11T03:48:19.378Z,100715.50
2023-02-11T03:50:24.053Z,100712.06
2023-02-11T03:52:28.498Z,100709.78
2023-02-11T03:54:33.351Z,100711.38
2023-02-11T03:56:46.330Z,100713.06
2023-02-11T03:58:49.883Z,100703.13
2023-02-11T04:00:52.947Z,100703.25
2023-02-11T04:02:55.771Z,100702.88
2023-02-11T04:04:58.818Z,100714.25
2023-02-11T04:07:01.810Z,100715.59
2023-02-11T04:09:05.378Z,100712.94
2023-02-11T04:11:10.050Z,100707.34
2023-02-11T04:13:12.930Z,100703.72
2023-02-11T04:15:15.970Z,100691.25
2023-02-11T04:17:19.090Z,100692.22
2023-02-11T04:19:22.270Z,100693.19
2023-02-11T04:21:25.569Z,100704.44
2023-02-11T04:23:28.501Z,100699.78
2023-02-11T04:25:31.529Z,100695.47
2023-02-11T04:27:36.576Z,100695.22
2023-02-11T04:29:39.486Z,100671.38
2023-02-11T04:31:42.290Z,100676.53
2023-02-11T04:33:45.262Z,100657.81
2023-02-11T04:35:48.372Z,100678.81
2023-02-11T04:37:51.400Z,100671.00
2023-02-11T04:39:54.266Z,100678.44
2023-02-11T04:41:57.254Z,100675.09
2023-02-11T04:44:01.562Z,100684.31
2023-02-11T04:46:04.684Z,100686.84
2023-02-11T04:48:07.772Z,100686.63
2023-02-11T04:50:11.173Z,100693.47
2023-02-11T04:52:13.944Z,100688.28
2023-02-11T04:54:17.757Z,100692.88
2023-02-11T04:56:20.732Z,100678.47
2023-02-11T04:58:24.692Z,100685.66
2023-02-11T05:00:29.652Z,100680.41
2023-02-11T05:02:32.891Z,100680.25
2023-02-11T05:04:35.722Z,100677.75
2023-02-11T05:06:39.723Z,100673.53
2023-02-11T05:08:42.771Z,100673.06
2023-02-11T05:10:48.426Z,100667.06
2023-02-11T05:12:51.625Z,100679.19
2023-02-11T05:14:55.460Z,100670.44
2023-02-11T05:16:59.869Z,100684.09
2023-02-11T05:19:02.892Z,100688.16
2023-02-11T05:21:07.400Z,100685.06
2023-02-11T05:23:10.492Z,100684.69
2023-02-11T05:25:13.430Z,100692.41
2023-02-11T05:27:16.430Z,100693.09
2023-02-11T05:29:20.352Z,100695.38
2023-02-11T05:31:23.370Z,100687.34
2023-02-11T05:33:28.131Z,100689.03
2023-02-11T05:35:31.131Z,100693.69
2023-02-11T05:37:33.965Z,100699.81
2023-02-11T05:39:37.170Z,100692.88
2023-02-11T05:41:40.276Z,100687.47
2023-02-11T05:43:43.253Z,100676.91
2023-02-11T05:45:46.141Z,100674.50
2023-02-11T05:47:49.077Z,100666.47
2023-02-11T05:49:54.011Z,100653.16
2023-02-11T05:51:57.098Z,100647.03
2023-02-11T05:53:59.930Z,100646.44
2023-02-11T05:56:02.907Z,100641.88
2023-02-11T05:58:06.531Z,100642.34
2023-02-11T06:00:11.095Z,100643.31
2023-02-11T06:02:16.826Z,100638.75
2023-02-11T06:04:19.861Z,100631.78
2023-02-11T06:06:24.253Z,100630.00
2023-02-11T06:08:27.251Z,100637.06
2023-02-11T06:10:30.290Z,100639.34
2023-02-11T06:12:33.415Z,100641.00
2023-02-11T06:14:36.293Z,100627.81
2023-02-11T06:16:39.352Z,100653.00
2023-02-11T06:18:42.181Z,100653.00
2023-02-11T06:20:45.099Z,100631.78
2023-02-11T06:22:49.491Z,100622.66
2023-02-11T06:25:01.196Z,100625.41
2023-02-11T06:27:07.411Z,100627.34
2023-02-11T06:29:10.573Z,100628.28
2023-02-11T06:31:13.923Z,100623.13
2023-02-11T06:33:17.075Z,100620.03
2023-02-11T06:35:20.074Z,100625.19
2023-02-11T06:37:23.039Z,100631.53
2023-02-11T06:39:27.470Z,100636.81
2023-02-11T06:41:30.691Z,100636.94
2023-02-11T06:43:33.572Z,100634.91
2023-02-11T06:45:36.557Z,100651.81
2023-02-11T06:47:40.260Z,100638.88
2023-02-11T06:49:43.141Z,100635.50
2023-02-11T06:51:46.213Z,100630.09
2023-02-11T06:53:49.372Z,100637.44
2023-02-11T06:55:53.772Z,100641.72
2023-02-11T06:57:56.775Z,100632.28
2023-02-11T06:59:59.853Z,100633.09
2023-02-11T07:02:02.917Z,100629.97
2023-02-11T07:04:07.222Z,100628.53
2023-02-11T07:06:14.099Z,100616.91
2023-02-11T07:08:17.602Z,100618.94
2023-02-11T07:10:20.632Z,100614.84
2023-02-11T07:12:24.991Z,100606.81
2023-02-11T07:14:28.274Z,100600.31
2023-02-11T07:16:32.002Z,100598.22
2023-02-11T07:18:35.265Z,100591.38
2023-02-11T07:20:39.331Z,100585.59
2023-02-11T07:22:42.270Z,100593.00
2023-02-11T07:24:45.284Z,100600.50
2023-02-11T07:26:48.413Z,100597.38
2023-02-11T07:28:53.484Z,100596.00
2023-02-11T07:30:56.649Z,100595.88
2023-02-11T07:32:59.457Z,100598.72
2023-02-11T07:35:02.672Z,100594.84
2023-02-11T07:37:05.780Z,100592.06
2023-02-11T07:39:08.721Z,100578.34
2023-02-11T07:41:14.213Z,100579.97
2023-02-11T07:43:17.196Z,100576.69
2023-02-11T07:45:22.372Z,100570.03
2023-02-11T07:47:25.361Z,100567.41
2023-02-11T07:49:28.514Z,100569.38
2023-02-11T07:51:32.211Z,100570.19
2023-02-11T07:53:35.251Z,100570.69
2023-02-11T07:55:38.332Z,100580.22
2023-02-11T07:57:41.608Z,100582.34
2023-02-11T07:59:44.612Z,100583.28
2023-02-11T08:01:49.093Z,100579.53
2023-02-11T08:03:52.292Z,100588.34
2023-02-11T08:05:55.510Z,100589.72
2023-02-11T08:07:58.590Z,100588.44
2023-02-11T08:10:01.585Z,100591.63
2023-02-11T08:12:05.249Z,100594.28
2023-02-11T08:14:08.929Z,100597.22
2023-02-11T08:16:19.919Z,100605.03
2023-02-11T08:18:24.448Z,100604.34
2023-02-11T08:20:27.527Z,100610.03
2023-02-11T08:22:32.087Z,100607.53
2023-02-11T08:24:35.224Z,100602.69
2023-02-11T08:26:38.329Z,100594.72
2023-02-11T08:28:43.889Z,100595.84
2023-02-11T08:30:46.958Z,100600.88
2023-02-11T08:32:50.120Z,100594.44
2023-02-11T08:34:54.894Z,100593.63
2023-02-11T08:36:57.911Z,100597.41
2023-02-11T08:39:18.563Z,100591.69
2023-02-11T08:41:22.305Z,100592.78
2023-02-11T08:43:25.205Z,100593.91
2023-02-11T08:45:28.556Z,100579.41
2023-02-11T08:47:31.911Z,100576.19
2023-02-11T08:49:35.007Z,100579.56
2023-02-11T08:51:39.446Z,100579.56
2023-02-11T08:53:42.606Z,100580.25
2023-02-11T08:55:49.915Z,100588.50
2023-02-11T08:57:53.132Z,100588.59
2023-02-11T08:59:56.008Z,100593.78
2023-02-11T09:01:59.271Z,100601.59
2023-02-11T09:04:02.334Z,100606.06
2023-02-11T09:06:06.729Z,100606.22
2023-02-11T09:08:11.365Z,100612.47
2023-02-11T09:10:14.406Z,100616.53
2023-02-11T09:12:17.264Z,100618.06
2023-02-11T09:14:22.590Z,100620.84
2023-02-11T09:16:27.920Z,100619.75
2023-02-11T09:18:31.166Z,100629.09
2023-02-11T09:20:34.533Z,100636.47
2023-02-11T09:22:37.439Z,100638.31
2023-02-11T09:24:42.108Z,100639.03
2023-02-11T09:26:45.327Z,100634.81
2023-02-11T09:28:49.096Z,100631.88
2023-02-11T09:30:52.425Z,100628.41
2023-02-11T09:32:55.586Z,100627.97
2023-02-11T09:34:58.636Z,100615.28
2023-02-11T09:37:02.208Z,100625.59
2023-02-11T09:39:06.718Z,100623.34
2023-02-11T09:41:42.668Z,100619.88
2023-02-11T09:43:48.767Z,100626.44
2023-02-11T09:45:55.362Z,100621.13
2023-02-11T09:48:04.411Z,100617.63
2023-02-11T09:50:13.511Z,100613.28
2023-02-11T09:52:26.126Z,100605.72
2023-02-11T09:54:34.798Z,100604.06
2023-02-11T09:56:39.241Z,100591.34
2023-02-11T09:58:43.998Z,100596.78
2023-02-11T10:00:52.071Z,100593.56
2023-02-11T10:03:27.400Z,100580.53
2023-02-11T10:05:43.743Z,100572.13
2023-02-11T10:07:54.870Z,100570.31
2023-02-11T10:10:13.692Z,100545.97
2023-02-11T10:12:33.172Z,100552.91
2023-02-11T10:14:56.086Z,100550.63
2023-02-11T10:17:13.101Z,100536.31
2023-02-11T10:19:30.471Z,100529.63
2023-02-11T10:21:46.943Z,100513.97
2023-02-11T10:23:55.032Z,100494.41
2023-02-11T10:25:59.464Z,100475.44
2023-02-11T10:28:13.594Z,100481.81
2023-02-11T10:30:24.112Z,100473.22
2023-02-11T10:32:35.462Z,100455.31
2023-02-11T10:34:42.701Z,100447.34
2023-02-11T10:36:45.880Z,100453.47
2023-02-11T10:38:48.842Z,100448.09
2023-02-11T10:40:52.672Z,100447.41
2023-02-11T10:42:59.637Z,100447.53
2023-02-11T10:45:07.671Z,100445.78
2023-02-11T10:47:16.202Z,100447.50
2023-02-11T10:49:38.355Z,100451.63
2023-02-11T10:51:41.362Z,100453.16
2023-02-11T10:53:44.833Z,100443.19
2023-02-11T10:55:53.135Z,100435.66
2023-02-11T10:57:59.244Z,100441.22
2023-02-11T11:00:21.444Z,100456.50
2023-02-11T11:02:32.269Z,100457.16
2023-02-11T11:04:42.748Z,100454.69
2023-02-11T11:06:45.776Z,100452.22
2023-02-11T11:08:51.191Z,100446.25
2023-02-11T11:11:07.622Z,100436.09
2023-02-11T11:13:34.301Z,100433.47
2023-02-11T11:15:38.419Z,100444.81
2023-02-11T11:17:41.321Z,100451.66
2023-02-11T11:19:44.693Z,100444.41
2023-02-11T11:21:49.013Z,100426.06
2023-02-11T11:23:59.594Z,100428.44
2023-02-11T11:26:05.639Z,100426.06
2023-02-11T11:28:22.286Z,100414.06
2023-02-11T11:30:31.951Z,100410.03
2023-02-11T11:32:37.466Z,100399.91
2023-02-11T11:34:43.005Z,100403.88
2023-02-11T11:36:46.042Z,100415.44
2023-02-11T11:38:52.793Z,100415.53
2023-02-11T11:41:17.438Z,100424.31
2023-02-11T11:43:23.222Z,100429.44
2023-02-11T11:45:27.371Z,100435.91
2023-02-11T11:47:36.648Z,100443.09
2023-02-11T11:49:45.918Z,100439.59
2023-02-11T11:51:57.747Z,100439.16
2023-02-11T11:54:03.645Z,100446.81
2023-02-11T11:56:11.878Z,100443.13
2023-02-11T11:58:17.784Z,100446.00
2023-02-11T12:00:24.495Z,100447.81
2023-02-11T12:03:01.455Z,100440.16
2023-02-11T12:05:09.732Z,100441.06
2023-02-11T12:07:27.357Z,100438.25
2023-02-11T12:09:42.245Z,100437.44
2023-02-11T12:12:11.891Z,100447.94
2023-02-11T12:14:24.642Z,100428.91
2023-02-11T12:16:43.981Z,100425.59
2023-02-11T12:19:17.320Z,100439.44
2023-02-11T12:21:33.578Z,100438.13
2023-02-11T12:23:50.229Z,100420.34
2023-02-11T12:26:01.980Z,100434.09
2023-02-11T12:28:20.569Z,100425.97
2023-02-11T12:30:48.473Z,100418.59
2023-02-11T12:33:02.261Z,100418.16
2023-02-11T12:35:30.361Z,100417.84
2023-02-11T12:37:45.978Z,100411.38
2023-02-11T12:39:53.935Z,100399.28
2023-02-11T12:42:38.054Z,100406.53
2023-02-11T12:44:56.199Z,100393.75
2023-02-11T12:47:09.524Z,100403.09
2023-02-11T12:49:29.356Z,100397.09
2023-02-11T12:51:50.002Z,100383.63
2023-02-11T12:54:16.283Z,100364.03
2023-02-11T12:56:24.023Z,100347.88
2023-02-11T12:58:44.170Z,100363.72
2023-02-11T13:00:52.292Z,100362.75
2023-02-11T13:03:00.338Z,100371.56
2023-02-11T13:05:13.300Z,100372.22
2023-02-11T13:07:24.267Z,100371.75
2023-02-11T13:09:32.256Z,100373.59
2023-02-11T13:11:40.281Z,100377.91
2023-02-11T13:13:50.233Z,100381.91
2023-02-11T13:16:01.320Z,100378.41
2023-02-11T13:18:19.037Z,100367.94
2023-02-11T13:20:35.537Z,100376.44
2023-02-11T13:22:42.876Z,100387.41
2023-02-11T13:24:53.737Z,100372.59
2023-02-11T13:27:05.938Z,100365.75
2023-02-11T13:29:29.547Z,100339.03
2023-02-11T13:31:32.619Z,100315.72
2023-02-11T13:33:37.867Z,100301.41
2023-02-11T13:35:44.001Z,100314.19
2023-02-11T13:37:49.205Z,100325.50
2023-02-11T13:40:00.402Z,100324.50
2023-02-11T13:42:04.935Z,100316.19
2023-02-11T13:44:22.592Z,100306.84
2023-02-11T13:46:28.141Z,100325.13
2023-02-11T13:48:34.109Z,100325.47
2023-02-11T13:50:40.100Z,100325.50
2023-02-11T13:52:43.054Z,100328.97
2023-02-11T13:54:52.263Z,100327.94
2023-02-11T13:57:28.028Z,100332.09
2023-02-11T13:59:47.902Z,100315.84
2023-02-11T14:02:24.393Z,100326.25
2023-02-11T14:04:48.784Z,100322.28
2023-02-11T14:07:44.542Z,100332.03
2023-02-11T14:09:53.743Z,100330.25
2023-02-11T14:12:23.746Z,100331.41
2023-02-11T14:14:28.555Z,100329.06
2023-02-11T14:16:37.907Z,100328.41
2023-02-11T14:19:02.736Z,100336.81
2023-02-11T14:21:13.556Z,100328.00
2023-02-11T14:23:27.633Z,100338.28
2023-02-11T14:25:32.460Z,100333.50
2023-02-11T14:27:41.399Z,100351.25
2023-02-11T14:29:51.766Z,100347.09
2023-02-11T14:32:05.744Z,100355.06
2023-02-11T14:34:38.330Z,100343.91
2023-02-11T14:37:14.018Z,100351.19
2023-02-11T14:39:27.517Z,100355.19
2023-02-11T14:41:36.197Z,100365.25
2023-02-11T14:43:43.564Z,100367.78
2023-02-11T14:45:51.234Z,100353.50
2023-02-11T14:48:00.826Z,100363.59
2023-02-11T14:50:04.019Z,100368.00
2023-02-11T14:52:17.505Z,100367.38
2023-02-11T14:54:25.499Z,100372.53
2023-02-11T14:56:31.516Z,100374.53
2023-02-11T14:58:35.880Z,100374.31
2023-02-11T15:00:49.788Z,100375.16
2023-02-11T15:02:54.171Z,100383.59
2023-02-11T15:05:19.903Z,100388.56
2023-02-11T15:07:23.116Z,100382.44
2023-02-11T15:09:34.928Z,100383.41
2023-02-11T15:11:41.338Z,100383.88
2023-02-11T15:13:50.032Z,100390.19
2023-02-11T15:15:56.936Z,100395.50
2023-02-11T15:18:03.762Z,100401.25
2023-02-11T15:20:16.222Z,100398.38
2023-02-11T15:22:22.797Z,100402.00
2023-02-11T15:24:28.557Z,100397.53
2023-02-11T15:26:31.599Z,100395.66
2023-02-11T15:28:36.020Z,100400.81
2023-02-11T15:30:40.556Z,100401.13
2023-02-11T15:32:45.567Z,100398.59
2023-02-11T15:34:49.875Z,100409.91
2023-02-11T15:36:52.834Z,100410.81
2023-02-11T15:39:18.976Z,100416.06
2023-02-11T15:41:36.989Z,100423.09
2023-02-11T15:43:44.927Z,100425.16
2023-02-11T15:45:59.494Z,100426.25
2023-02-11T15:48:13.328Z,100420.38
2023-02-11T15:50:22.028Z,100427.53
2023-02-11T15:52:26.878Z,100426.38
2023-02-11T15:54:32.538Z,100429.88
2023-02-11T15:56:43.596Z,100431.25
2023-02-11T15:58:50.077Z,100434.06
2023-02-11T16:01:00.020Z,100438.25
2023-02-11T16:03:03.150Z,100440.91
2023-02-11T16:05:08.242Z,100440.41
2023-02-11T16:07:38.902Z,100435.63
2023-02-11T16:09:41.916Z,100439.28
2023-02-11T16:11:58.755Z,100443.59
2023-02-11T16:14:05.801Z,100439.81
2023-02-11T16:16:20.165Z,100442.91
2023-02-11T16:18:39.838Z,100450.44
2023-02-11T16:20:48.355Z,100438.97
2023-02-11T16:22:51.637Z,100452.25
2023-02-11T16:24:57.681Z,100454.91
2023-02-11T16:27:02.533Z,100450.75
2023-02-11T16:29:08.196Z,100444.19
2023-02-11T16:31:11.323Z,100453.88
2023-02-11T16:33:15.856Z,100449.53
2023-02-11T16:35:19.077Z,100457.66
2023-02-11T16:37:22.037Z,100450.84
2023-02-11T16:39:25.255Z,100448.78
2023-02-11T16:41:28.258Z,100447.50
2023-02-11T16:43:31.237Z,100455.47
2023-02-11T16:45:38.524Z,100459.78
2023-02-11T16:47:42.917Z,100458.81
2023-02-11T16:49:47.358Z,100454.72
2023-02-11T16:51:52.978Z,100455.38
2023-02-11T16:53:55.491Z,100461.84
2023-02-11T16:55:58.396Z,100461.38
2023-02-11T16:58:01.639Z,100470.19
2023-02-11T17:00:06.956Z,100460.22
2023-02-11T17:02:15.946Z,100464.84
2023-02-11T17:04:21.626Z,100466.72
2023-02-11T17:06:26.274Z,100465.88
2023-02-11T17:08:30.275Z,100467.69
2023-02-11T17:10:33.318Z,100462.69
2023-02-11T17:12:36.130Z,100474.00
2023-02-11T17:14:39.107Z,100477.47
2023-02-11T17:16:43.434Z,100480.00
2023-02-11T17:18:46.459Z,100477.19
2023-02-11T17:20:49.391Z,100472.03
2023-02-11T17:22:53.852Z,100476.50
2023-02-11T17:24:57.390Z,100477.19
2023-02-11T17:27:00.188Z,100478.16
2023-02-11T17:29:04.800Z,100480.81
2023-02-11T17:31:09.528Z,100485.59
2023-02-11T17:33:12.450Z,100484.47
2023-02-11T17:35:15.509Z,100483.25
2023-02-11T17:37:18.267Z,100476.94
2023-02-11T17:39:22.658Z,100483.25
2023-02-11T17:41:25.548Z,100474.19
2023-02-11T17:43:29.248Z,100471.84
2023-02-11T17:45:32.208Z,100478.16
2023-02-11T17:47:35.790Z,100481.38
2023-02-11T17:49:38.869Z,100474.34
2023-02-11T17:51:41.716Z,100476.03
2023-02-11T17:53:44.788Z,100480.69
2023-02-11T17:55:49.293Z,100473.84
2023-02-11T17:57:52.350Z,100477.00
2023-02-11T17:59:55.129Z,100480.69
2023-02-11T18:01:57.931Z,100489.34
2023-02-11T18:04:00.869Z,100487.03
2023-02-11T18:06:06.798Z,100481.56
2023-02-11T18:08:09.589Z,100487.56
2023-02-11T18:10:12.724Z,100485.44
2023-02-11T18:12:25.478Z,100485.31
2023-02-11T18:14:28.437Z,100492.13
2023-02-11T18:16:31.545Z,100496.31
2023-02-11T18:18:34.760Z,100488.34
2023-02-11T18:20:37.519Z,100492.19
2023-02-11T18:22:41.263Z,100496.31
2023-02-11T18:24:44.144Z,100496.38
2023-02-11T18:26:46.999Z,100498.72
2023-02-11T18:28:52.821Z,100490.91
2023-02-11T18:30:58.615Z,100496.91
2023-02-11T18:33:01.485Z,100494.94
2023-02-11T18:35:04.830Z,100500.09
2023-02-11T18:37:07.823Z,100497.16
2023-02-11T18:39:10.844Z,100507.00
2023-02-11T18:41:14.526Z,100501.69
2023-02-11T18:43:18.054Z,100504.19
2023-02-11T18:45:24.157Z,100503.06
2023-02-11T18:47:27.126Z,100494.91
2023-02-11T18:49:30.323Z,100503.13
2023-02-11T18:51:33.521Z,100507.66
2023-02-11T18:53:36.595Z,100502.19
2023-02-11T18:55:40.397Z,100505.16
2023-02-11T18:57:43.482Z,100495.66
2023-02-11T18:59:46.518Z,100509.41
2023-02-11T19:01:52.088Z,100509.41
2023-02-11T19:03:55.239Z,100501.97
2023-02-11T19:05:58.117Z,100519.22
2023-02-11T19:08:01.399Z,100517.56
2023-02-11T19:10:05.115Z,100515.06
2023-02-11T19:12:09.039Z,100516.44
2023-02-11T19:14:12.636Z,100520.75
2023-02-11T19:16:17.173Z,100531.53
2023-02-11T19:18:21.957Z,100532.38
2023-02-11T19:20:24.917Z,100534.19
2023-02-11T19:22:27.812Z,100533.34
2023-02-11T19:24:31.194Z,100538.00
2023-02-11T19:26:34.876Z,100530.00
2023-02-11T19:28:38.019Z,100539.53
2023-02-11T19:30:41.320Z,100539.69
2023-02-11T19:32:44.395Z,100539.00
2023-02-11T19:34:49.117Z,100544.00
2023-02-11T19:36:52.327Z,100540.50
2023-02-11T19:38:55.324Z,100543.47
2023-02-11T19:40:59.036Z,100536.00
2023-02-11T19:43:01.917Z,100539.69
2023-02-11T19:45:07.717Z,100543.31
2023-02-11T19:47:10.881Z,100543.03
2023-02-11T19:49:16.156Z,100544.16
2023-02-11T19:51:21.276Z,100550.31
2023-02-11T19:53:24.798Z,100541.66
2023-02-11T19:55:27.717Z,100548.47
2023-02-11T19:57:30.661Z,100558.59
2023-02-11T19:59:33.836Z,100548.63
2023-02-11T20:01:37.487Z,100551.44
2023-02-11T20:03:42.507Z,100542.78
2023-02-11T20:05:48.142Z,100555.63
2023-02-11T20:07:52.549Z,100545.97
2023-02-11T20:09:55.797Z,100541.66
2023-02-11T20:11:58.996Z,100548.09
2023-02-11T20:14:02.440Z,100549.91
2023-02-11T20:16:07.118Z,100548.94
2023-02-11T20:18:10.034Z,100546.44
2023-02-11T20:20:13.525Z,100551.44
2023-02-11T20:22:16.590Z,100558.59
2023-02-11T20:24:21.160Z,100546.44
2023-02-11T20:26:25.954Z,100550.94
2023-02-11T20:28:28.850Z,100562.63
2023-02-11T20:30:32.074Z,100561.09
2023-02-11T20:32:38.626Z,100567.25
2023-02-11T20:34:41.639Z,100566.28
2023-02-11T20:36:51.959Z,100574.09
2023-02-11T20:38:55.716Z,100570.75
2023-02-11T20:41:05.591Z,100571.59
2023-02-11T20:43:08.663Z,100574.25
2023-02-11T20:45:11.712Z,100568.94
2023-02-11T20:47:14.711Z,100574.38
2023-02-11T20:49:20.635Z,100578.22
2023-02-11T20:51:25.592Z,100581.03
2023-02-11T20:53:28.432Z,100577.19
2023-02-11T20:55:31.714Z,100578.38
2023-02-11T20:57:36.113Z,100581.84
2023-02-11T20:59:39.116Z,100583.69
2023-02-11T21:01:44.152Z,100596.13
2023-02-11T21:03:52.033Z,100595.28
2023-02-11T21:05:58.954Z,100596.97
2023-02-11T21:08:01.873Z,100613.91
2023-02-11T21:10:05.447Z,100601.63
2023-02-11T21:12:09.246Z,100605.94
2023-02-11T21:14:13.991Z,100604.81
2023-02-11T21:16:20.796Z,100603.81
2023-02-11T21:18:24.597Z,100608.84
2023-02-11T21:20:27.654Z,100614.69
2023-02-11T21:22:30.574Z,100606.84
2023-02-11T21:24:33.525Z,100619.31
2023-02-11T21:26:37.716Z,100623.78
2023-02-11T21:28:41.248Z,100615.97
2023-02-11T21:30:45.902Z,100621.97
2023-02-11T21:32:48.959Z,100622.13
2023-02-11T21:34:51.881Z,100625.59
2023-02-11T21:36:55.003Z,100630.81
2023-02-11T21:38:58.131Z,100629.09
2023-02-11T21:41:04.359Z,100642.41
2023-02-11T21:43:07.520Z,100642.41
2023-02-11T21:45:11.090Z,100649.41
2023-02-11T21:47:15.639Z,100652.44
2023-02-11T21:49:20.136Z,100644.47
2023-02-11T21:51:24.610Z,100653.56
2023-02-11T21:53:27.550Z,100648.41
2023-02-11T21:55:30.370Z,100647.56
2023-02-11T21:57:33.263Z,100652.44
2023-02-11T21:59:36.250Z,100646.16
2023-02-11T22:01:39.244Z,100650.63
2023-02-11T22:03:44.121Z,100654.41
2023-02-11T22:05:47.180Z,100648.94
2023-02-11T22:07:50.283Z,100657.09
2023-02-11T22:09:55.082Z,100657.41
2023-02-11T22:11:58.001Z,100656.91
2023-02-11T22:14:00.923Z,100655.78
2023-02-11T22:16:05.786Z,100661.81
2023-02-11T22:18:08.775Z,100662.66
2023-02-11T22:20:13.502Z,100669.78
2023-02-11T22:22:18.646Z,100664.31
2023-02-11T22:24:21.486Z,100669.19
2023-02-11T22:26:27.041Z,100678.97
2023-02-11T22:28:30.375Z,100679.81
2023-02-11T22:30:33.388Z,100684.69
2023-02-11T22:32:36.361Z,100681.03
2023-02-11T22:34:39.676Z,100679.59
2023-02-11T22:36:45.715Z,100683.63
2023-02-11T22:38:48.835Z,100701.56
2023-02-11T22:40:51.763Z,100702.09
2023-02-11T22:42:54.673Z,100693.13
2023-02-11T22:44:57.513Z,100685.16
2023-02-11T22:47:00.553Z,100700.28
2023-02-11T22:49:03.872Z,100692.00
2023-02-11T22:51:08.756Z,100692.13
2023-02-11T22:53:13.152Z,100693.97
2023-02-11T22:55:16.317Z,100699.44
2023-02-11T22:57:19.130Z,100707.28
2023-02-11T22:59:22.393Z,100708.50
2023-02-11T23:01:25.660Z,100711.59
2023-02-11T23:03:29.162Z,100714.09
2023-02-11T23:05:32.032Z,100716.78
2023-02-11T23:07:35.032Z,100709.63
2023-02-11T23:09:39.394Z,100715.63
2023-02-11T23:11:42.591Z,100713.94
2023-02-11T23:13:46.933Z,100721.81
2023-02-11T23:15:49.984Z,100714.34
2023-02-11T23:17:53.055Z,100707.34
2023-02-11T23:19:55.996Z,100711.84
2023-02-11T23:21:59.102Z,100714.63
2023-02-11T23:24:04.678Z,100709.88
2023-02-11T23:26:12.073Z,100707.75
2023-02-11T23:28:15.261Z,100705.91
2023-02-11T23:30:18.952Z,100713.59
2023-02-11T23:32:22.125Z,100711.09
2023-02-11T23:34:26.073Z,100722.72
2023-02-11T23:36:29.383Z,100727.22
2023-02-11T23:38:32.195Z,100724.56
2023-02-11T23:40:35.194Z,100718.47
2023-02-11T23:42:39.567Z,100722.72
2023-02-11T23:44:42.516Z,100712.22
2023-02-11T23:46:45.598Z,100722.88
2023-02-11T23:48:48.916Z,100729.72
2023-02-11T23:50:51.839Z,100729.94
2023-02-11T23:52:54.760Z,100730.56
2023-02-11T23:54:57.679Z,100722.50
2023-02-11T23:57:00.638Z,100734.44
2023-02-11T23:59:05.350Z,100724.47
